My Meet Scores
Alyssa Brigham, Gym Kinetics Gymnastics - MyMeetScores.com
Top100 | Top Teams | Upcoming Meets | Completed Meets | Latest | Add Scores | Help| Support | Bookmark and Share

Alyssa Brigham, Gym Kinetics Gymnastics
Personal Bests
LevelVault BarsBeamFloorAA
49.8509.450 9.2509.25036.900
59.4509.150 8.8509.27536.150
69.4759.450 9.1759.42536.775
79.3258.825 0.0008.57526.725
Scores on America's Top 100as of 02.18.2020
Year Level Vault Bars Beam Floor AA
2012 49.850

Click here to view our exclusive Top 100 Collection
Meet Scores
Date Meet Team Session Level Division Vault Bars Beam Floor AA
2016-01-15 2016 Bravo Classic Gym Kinetics Gymnastics 8B 7 11-12 yrs 9.325 19T 8.825 19 0.000 33 8.575 32 26.725 32
2015-05-02 2015 Illinois Level 6, 7 State Championships Gym Kinetics Gymnastics 6 Youth-D 9.175 3 9.450 2 8.200 23 9.300 9 36.125 12
2015-03-13 2015 Lucky Invite Gym Kinetics Gymnastics B2 6 Jr.A 9.350 2 8.800 7 8.850 7 9.375 4 36.375 5
2015-01-23 King Arthur Invitational Gym Kinetics Gymnastics 1 6 JrA 9.200 2 9.150 2 9.175 9 9.250 6 36.775 2
2015-01-09 Legacy Elite Winter Classic 2015 Flipstar Gymnastics Academy 6A 6 Ch A 9.475 1 9.200 1 8.525 10 9.425 2 36.625 4
2014-04-04 2014 Illinois Level 5 and XCEL State Championship 3D Gymnastics and Cheer Inc 5 Ch.B 9.150 15 9.100 11 8.450 27 9.200 18 35.900 18
2013-12-19 2013 Hawaiian Pineapple Classic 3D Gymnastics and Cheer Inc A4 5 8-10 8.925 6 9.000 3 8.850 10 8.850 8 35.625 5
2013-12-06 Ultimate Wish Classic 3D Gymnastics and Cheer Inc A 5 Youth7 9.400 1 8.650 6 7.925 12 8.425 6 34.400 4
2013-04-26 2013 Illinois Level 5 and Xcel State Meet 3D Gymnastics and Cheer Inc 5 Child.B 8.900 12 9.150 15 8.375 23 9.275 12 35.700 15
2013-02-16 BIG Dream Classic 2013 3D Gymnastics and Cheer Inc 6A 5 Child 9.450 1 9.150 3 8.650 5 8.900 3T 36.150 2
2013-02-08 IGI Chicago Style Gymnastics Meet 3D Gymnastics and Cheer Inc 623 5 9 & Under 9.200 3 8.450 19 8.400 23T 9.000 7 35.050 11
2012-12-13 2012 Hawaiin Pineapple Classic 3D Gymnastics and Cheer Inc 7 5 ages 7-8 8.650 3 8.575 4 8.200 7 8.850 3 34.275 3
2012-12-07 St Nick Invite 3D Gymnastics and Cheer Inc 5A 5 All 8.850 11 8.650 20 8.800 22 8.775 22 35.075 15
2012-04-20 2012 Illinois Level 4 State Championships 3D Gymnastics and Cheer Inc 1 4 Child.C 9.850 1 9.150 11 8.650 21 9.250 4 36.900 6
2012-02-18 BIG Dream Classic 2012 3D Gymnastics and Cheer Inc 1A 4 Child 9.000 3 9.450 2T 8.425 3 9.125 3 36.000 3
2012-02-10 IGI Chicago Style Gymnastics 3D Gymnastics and Cheer Inc 233 4 8 & Under 9.200 5T 8.400 24 9.250 12T 9.125 10T 35.975 12
2011-12-15 2011 Hawaiian Pineapple Classic 3D Gymnastics and Cheer Inc 4B 4 1-7 9.425 2 9.225 3 9.150 2 9.000 3 36.800 2
2011-03-18 2011 Illinois Level 4 State Meet Gainers Gymnastics 2 4 Child.A 9.400 10 8.825 14 8.350 22 8.950 20 35.525 17
2011-02-26 Midwest Open Gainers Gymnastics 6B 4 6 to 7 9.100 3 7.550 20 7.575 23 9.000 4 33.225 19
2011-02-18 2011 The Great Western Invitational Gainers Gymnastics 1 4 7B 8.800 12 8.400 11 7.700 14 8.700 10 33.600 11
2010-11-12 North Judges Cup Gainers Gymnastics 4A 4 6-7yrs 8.900 5 8.000 7 8.100 5 7.200 9 32.200 8

www.lazysuits.com